Northway Airport
PAOR : rendu visible

Aérodrome :











RETROUVEZ-NOUS SUR...

 
LOGIN :

S'inscrire | Disclaimer

   EN    FR    IT 

 









Légende :    VFR   VFR Marginal   IFR   IFR Intensif   IFR Très Intensif
Visi : 
Plafond : 
>= 8 km
>= 3000ft
5 à 8 km
1000 à 3000 ft
1500m à 5 km
500 à 1000 ft
800 à 1500m
200 à 500 ft
< 800m
< 200 ft
Symboles :   Orages  Brouillard  Fortes neiges  Fortes précipitations  Vent > 20 kt






- Altitude de l'aérodrome : 1715 ft
- Code IATA : ORT


PAOR - Northway

DERNIER METAR :
  • 241943Z 32006KT 6SM HZ SCT006 SCT012 OVC017 07/04 A2925 RMK AO2 T00720044

METARs EXPIRÉS :
  • 241915Z 31003KT 10SM OVC006 07/05 A2924 RMK AO2 CIG 003V008 T00720050
  • 241853Z 34006KT 6SM BR OVC004 07/05 A2924 RMK AO2 SLP913 T00720050
  • 241815Z 31004KT 10SM OVC004 07/06 A2923 RMK AO2 T00720056
  • 241753Z 33004KT 6SM BR OVC003 07/05 A2923 RMK AO2 SLP908 60000 T00670050 10067 20050 53011
  • 241740Z 35003KT 10SM OVC003 07/05 A2922 RMK AO2 T00670050
  • 241717Z 00000KT 10SM OVC004 07/05 A2922 RMK AO2 T00670050
  • 241653Z 32003KT 5SM BR OVC003 07/05 A2921 RMK AO2 SLP903 T00670050
  • 241646Z 00000KT 10SM OVC003 06/05 A2921 RMK AO2 T00610050

TAF PAOR
Valide du 24 à 18h jusqu'au 25 à 18h UTC


241725Z 2418/2518 00000KT P6SM VCSH OVC004
FM242000 00000KT P6SM VCSH SCT004 OVC015
FM251200 00000KT 6SM -RA BR OVC007
FIR PAZA / Amérique du Nord



MET'MAP, la Météo Aéronautique d'un coup d'oeil ! - Copyright ORBIFLY Décembre 2007 - Disclaimer

ORBIFLY MET'MAP TEAM :

Programmation & Développement : Alexandra Zaïnal
Sur une idée originale de : Baudouin d'Aumeries
Assistance à la programmation : Marc-Olivier Méhu
Soutien technique & logistique : Manuel Goepfert

Contact : metmap@orbifly.com




SOURCES & CREDITS :

   NOAA       Earth
Advisory